sensor_id;sensor_type;location;lat;lon;timestamp;pressure;altitude;pressure_sealevel;temperature;humidity
47815;BME280;33579;50.058;18.130;2023-02-03T00:00:27;99949.00;;;0.06;100.00
47815;BME280;33579;50.058;18.130;2023-02-03T00:01:29;99953.47;;;0.02;100.00
47815;BME280;33579;50.058;18.130;2023-02-03T00:02:30;99948.34;;;-0.01;100.00
47815;BME280;33579;50.058;18.130;2023-02-03T00:03:32;99956.19;;;-0.03;100.00
47815;BME280;33579;50.058;18.130;2023-02-03T00:04:33;99967.28;;;0.01;100.00
47815;BME280;33579;50.058;18.130;2023-02-03T00:05:35;99956.88;;;0.03;100.00
47815;BME280;33579;50.058;18.130;2023-02-03T00:06:37;99964.75;;;-0.01;100.00
47815;BME280;33579;50.058;18.130;2023-02-03T00:07:39;99963.00;;;0.00;100.00
47815;BME280;33579;50.058;18.130;2023-02-03T00:08:40;99961.28;;;-0.01;100.00
47815;BME280;33579;50.058;18.130;2023-02-03T00:09:42;99969.88;;;0.01;100.00
47815;BME280;33579;50.058;18.130;2023-02-03T00:10:43;99962.69;;;0.09;100.00
47815;BME280;33579;50.058;18.130;2023-02-03T00:11:45;99963.56;;;0.10;100.00
47815;BME280;33579;50.058;18.130;2023-02-03T00:12:48;99966.69;;;0.20;100.00
47815;BME280;33579;50.058;18.130;2023-02-03T00:13:50;99959.72;;;0.22;100.00
47815;BME280;33579;50.058;18.130;2023-02-03T00:14:52;99971.13;;;0.16;100.00
47815;BME280;33579;50.058;18.130;2023-02-03T00:15:53;99970.97;;;0.21;100.00
47815;BME280;33579;50.058;18.130;2023-02-03T00:16:55;99979.50;;;0.24;100.00
47815;BME280;33579;50.058;18.130;2023-02-03T00:17:56;99968.94;;;0.31;100.00
47815;BME280;33579;50.058;18.130;2023-02-03T00:18:58;99976.63;;;0.34;100.00
47815;BME280;33579;50.058;18.130;2023-02-03T00:19:59;99975.00;;;0.30;100.00
47815;BME280;33579;50.058;18.130;2023-02-03T00:21:01;99974.47;;;0.20;100.00
47815;BME280;33579;50.058;18.130;2023-02-03T00:22:02;99976.38;;;0.15;100.00
47815;BME280;33579;50.058;18.130;2023-02-03T00:23:09;99983.13;;;0.19;100.00
47815;BME280;33579;50.058;18.130;2023-02-03T00:24:10;99981.44;;;0.18;100.00
47815;BME280;33579;50.058;18.130;2023-02-03T00:25:12;99980.88;;;0.08;100.00
47815;BME280;33579;50.058;18.130;2023-02-03T00:26:15;99976.63;;;0.05;100.00
47815;BME280;33579;50.058;18.130;2023-02-03T00:27:18;99979.91;;;0.10;100.00
47815;BME280;33579;50.058;18.130;2023-02-03T00:28:19;99976.59;;;0.07;100.00
47815;BME280;33579;50.058;18.130;2023-02-03T00:29:21;99970.72;;;0.02;100.00
47815;BME280;33579;50.058;18.130;2023-02-03T00:30:23;99976.91;;;-0.04;100.00
47815;BME280;33579;50.058;18.130;2023-02-03T00:31:25;99975.94;;;0.00;100.00
47815;BME280;33579;50.058;18.130;2023-02-03T00:32:27;99978.34;;;0.06;100.00
47815;BME280;33579;50.058;18.130;2023-02-03T00:33:29;99970.78;;;0.00;100.00
47815;BME280;33579;50.058;18.130;2023-02-03T00:34:30;99967.28;;;0.01;100.00
47815;BME280;33579;50.058;18.130;2023-02-03T00:35:32;99970.69;;;0.03;100.00
47815;BME280;33579;50.058;18.130;2023-02-03T00:36:34;99964.50;;;0.07;100.00
47815;BME280;33579;50.058;18.130;2023-02-03T00:37:36;99968.59;;;0.15;100.00
47815;BME280;33579;50.058;18.130;2023-02-03T00:38:37;99959.03;;;0.17;100.00
47815;BME280;33579;50.058;18.130;2023-02-03T00:39:39;99960.88;;;0.13;100.00
47815;BME280;33579;50.058;18.130;2023-02-03T00:40:40;99964.22;;;0.17;100.00
47815;BME280;33579;50.058;18.130;2023-02-03T00:41:42;99955.44;;;0.21;100.00
47815;BME280;33579;50.058;18.130;2023-02-03T00:42:44;99964.75;;;0.26;100.00
47815;BME280;33579;50.058;18.130;2023-02-03T00:43:46;99962.13;;;0.28;100.00
47815;BME280;33579;50.058;18.130;2023-02-03T00:44:48;99963.97;;;0.24;100.00
47815;BME280;33579;50.058;18.130;2023-02-03T00:45:49;99957.50;;;0.11;100.00
47815;BME280;33579;50.058;18.130;2023-02-03T00:46:51;99956.63;;;0.10;100.00
47815;BME280;33579;50.058;18.130;2023-02-03T00:47:52;99969.78;;;0.04;100.00
47815;BME280;33579;50.058;18.130;2023-02-03T00:48:54;99963.97;;;-0.04;100.00
47815;BME280;33579;50.058;18.130;2023-02-03T00:49:55;99966.91;;;-0.15;100.00
47815;BME280;33579;50.058;18.130;2023-02-03T00:50:57;99969.53;;;-0.17;100.00
47815;BME280;33579;50.058;18.130;2023-02-03T00:51:59;99969.50;;;-0.15;100.00
47815;BME280;33579;50.058;18.130;2023-02-03T00:53:00;99965.91;;;-0.11;100.00
47815;BME280;33579;50.058;18.130;2023-02-03T00:54:02;99968.34;;;-0.06;100.00
47815;BME280;33579;50.058;18.130;2023-02-03T00:55:04;99969.16;;;-0.04;100.00
47815;BME280;33579;50.058;18.130;2023-02-03T00:56:06;99962.19;;;-0.02;100.00
47815;BME280;33579;50.058;18.130;2023-02-03T00:57:08;99956.22;;;-0.04;100.00
47815;BME280;33579;50.058;18.130;2023-02-03T00:58:09;99950.28;;;-0.08;100.00
47815;BME280;33579;50.058;18.130;2023-02-03T00:59:11;99956.44;;;-0.10;100.00
47815;BME280;33579;50.058;18.130;2023-02-03T01:00:13;99949.34;;;-0.05;100.00
47815;BME280;33579;50.058;18.130;2023-02-03T01:01:14;99953.34;;;0.05;100.00
47815;BME280;33579;50.058;18.130;2023-02-03T01:02:16;99953.22;;;0.10;100.00
47815;BME280;33579;50.058;18.130;2023-02-03T01:03:18;99959.03;;;0.17;100.00
47815;BME280;33579;50.058;18.130;2023-02-03T01:04:20;99954.69;;;0.17;100.00
47815;BME280;33579;50.058;18.130;2023-02-03T01:05:22;99952.28;;;0.12;100.00
47815;BME280;33579;50.058;18.130;2023-02-03T01:06:23;99950.41;;;0.16;100.00
47815;BME280;33579;50.058;18.130;2023-02-03T01:07:30;99952.03;;;0.20;100.00
47815;BME280;33579;50.058;18.130;2023-02-03T01:08:32;99950.28;;;0.21;100.00
47815;BME280;33579;50.058;18.130;2023-02-03T01:09:34;99936.41;;;0.23;100.00
47815;BME280;33579;50.058;18.130;2023-02-03T01:10:37;99943.94;;;0.30;100.00
47815;BME280;33579;50.058;18.130;2023-02-03T01:11:39;99948.28;;;0.29;100.00
47815;BME280;33579;50.058;18.130;2023-02-03T01:12:41;99959.84;;;0.19;100.00
47815;BME280;33579;50.058;18.130;2023-02-03T01:13:43;99945.22;;;0.18;100.00
47815;BME280;33579;50.058;18.130;2023-02-03T01:14:45;99951.81;;;0.26;100.00
47815;BME280;33579;50.058;18.130;2023-02-03T01:15:46;99944.28;;;0.20;100.00
47815;BME280;33579;50.058;18.130;2023-02-03T01:16:48;99945.56;;;0.07;100.00
47815;BME280;33579;50.058;18.130;2023-02-03T01:17:51;99945.78;;;-0.01;100.00
47815;BME280;33579;50.058;18.130;2023-02-03T01:18:54;99948.34;;;-0.01;100.00
47815;BME280;33579;50.058;18.130;2023-02-03T01:19:55;99945.72;;;0.01;100.00
47815;BME280;33579;50.058;18.130;2023-02-03T01:20:57;99937.94;;;0.02;100.00
47815;BME280;33579;50.058;18.130;2023-02-03T01:22:00;99944.72;;;0.05;100.00
47815;BME280;33579;50.058;18.130;2023-02-03T01:23:03;99940.31;;;0.08;100.00
47815;BME280;33579;50.058;18.130;2023-02-03T01:24:04;99941.94;;;0.12;100.00
47815;BME280;33579;50.058;18.130;2023-02-03T01:25:06;99944.41;;;0.16;100.00
47815;BME280;33579;50.058;18.130;2023-02-03T01:26:12;99940.06;;;0.16;100.00
47815;BME280;33579;50.058;18.130;2023-02-03T01:27:13;99936.53;;;0.19;100.00
47815;BME280;33579;50.058;18.130;2023-02-03T01:28:15;99940.81;;;0.20;100.00
47815;BME280;33579;50.058;18.130;2023-02-03T01:29:17;99932.13;;;0.22;100.00
47815;BME280;33579;50.058;18.130;2023-02-03T01:30:18;99940.28;;;0.10;100.00
47815;BME280;33579;50.058;18.130;2023-02-03T01:31:26;99942.31;;;0.00;100.00
47815;BME280;33579;50.058;18.130;2023-02-03T01:32:29;99942.66;;;-0.12;100.00
47815;BME280;33579;50.058;18.130;2023-02-03T01:33:30;99945.56;;;-0.22;100.00
47815;BME280;33579;50.058;18.130;2023-02-03T01:34:32;99940.44;;;-0.25;100.00
47815;BME280;33579;50.058;18.130;2023-02-03T01:35:33;99940.41;;;-0.23;100.00
47815;BME280;33579;50.058;18.130;2023-02-03T01:36:35;99940.38;;;-0.22;100.00
47815;BME280;33579;50.058;18.130;2023-02-03T01:37:36;99937.78;;;-0.22;100.00
47815;BME280;33579;50.058;18.130;2023-02-03T01:38:38;99938.63;;;-0.21;100.00
47815;BME280;33579;50.058;18.130;2023-02-03T01:39:40;99943.94;;;-0.26;100.00
47815;BME280;33579;50.058;18.130;2023-02-03T01:40:44;99939.66;;;-0.27;100.00
47815;BME280;33579;50.058;18.130;2023-02-03T01:41:47;99938.97;;;-0.32;100.00
47815;BME280;33579;50.058;18.130;2023-02-03T01:42:48;99936.50;;;-0.37;100.00
47815;BME280;33579;50.058;18.130;2023-02-03T01:43:52;99934.91;;;-0.41;100.00
47815;BME280;33579;50.058;18.130;2023-02-03T01:44:54;99928.97;;;-0.43;100.00
47815;BME280;33579;50.058;18.130;2023-02-03T01:45:57;99937.56;;;-0.44;100.00
47815;BME280;33579;50.058;18.130;2023-02-03T01:46:59;99935.97;;;-0.48;100.00
47815;BME280;33579;50.058;18.130;2023-02-03T01:48:03;99931.56;;;-0.45;100.00
47815;BME280;33579;50.058;18.130;2023-02-03T01:49:12;99932.34;;;-0.41;100.00
47815;BME280;33579;50.058;18.130;2023-02-03T01:50:19;99931.31;;;-0.35;100.00
47815;BME280;33579;50.058;18.130;2023-02-03T01:51:22;99922.59;;;-0.33;100.00
47815;BME280;33579;50.058;18.130;2023-02-03T01:52:24;99921.66;;;-0.30;100.00
47815;BME280;33579;50.058;18.130;2023-02-03T01:53:27;99924.06;;;-0.24;100.00
47815;BME280;33579;50.058;18.130;2023-02-03T01:54:31;99920.50;;;-0.20;100.00
47815;BME280;33579;50.058;18.130;2023-02-03T01:55:37;99923.97;;;-0.21;100.00
47815;BME280;33579;50.058;18.130;2023-02-03T01:56:45;99916.38;;;-0.27;100.00
47815;BME280;33579;50.058;18.130;2023-02-03T01:57:56;99925.25;;;-0.34;100.00
47815;BME280;33579;50.058;18.130;2023-02-03T01:58:59;99921.03;;;-0.38;100.00
47815;BME280;33579;50.058;18.130;2023-02-03T02:00:04;99923.28;;;-0.56;100.00
47815;BME280;33579;50.058;18.130;2023-02-03T02:01:13;99917.13;;;-0.52;100.00
47815;BME280;33579;50.058;18.130;2023-02-03T02:02:15;99922.44;;;-0.57;100.00
47815;BME280;33579;50.058;18.130;2023-02-03T02:03:20;99924.34;;;-0.63;100.00
47815;BME280;33579;50.058;18.130;2023-02-03T02:04:32;99921.59;;;-0.57;100.00
47815;BME280;33579;50.058;18.130;2023-02-03T02:06:02;99922.50;;;-0.58;100.00
47815;BME280;33579;50.058;18.130;2023-02-03T02:07:05;99919.84;;;-0.57;100.00
47815;BME280;33579;50.058;18.130;2023-02-03T02:08:07;99923.94;;;-0.49;100.00
47815;BME280;33579;50.058;18.130;2023-02-03T02:09:10;99921.94;;;-0.39;100.00
47815;BME280;33579;50.058;18.130;2023-02-03T02:10:11;99924.47;;;-0.38;100.00
47815;BME280;33579;50.058;18.130;2023-02-03T02:11:15;99916.75;;;-0.39;100.00
47815;BME280;33579;50.058;18.130;2023-02-03T02:12:16;99921.09;;;-0.40;100.00
47815;BME280;33579;50.058;18.130;2023-02-03T02:13:18;99911.59;;;-0.39;100.00
47815;BME280;33579;50.058;18.130;2023-02-03T02:14:21;99912.38;;;-0.37;100.00
47815;BME280;33579;50.058;18.130;2023-02-03T02:15:29;99903.66;;;-0.33;100.00
47815;BME280;33579;50.058;18.130;2023-02-03T02:19:57;99900.56;;;-0.45;100.00
47815;BME280;33579;50.058;18.130;2023-02-03T02:24:33;99899.78;;;-0.48;100.00
47815;BME280;33579;50.058;18.130;2023-02-03T02:27:25;99893.63;;;-0.73;100.00
47815;BME280;33579;50.058;18.130;2023-02-03T02:37:36;99865.63;;;-1.18;100.00
47815;BME280;33579;50.058;18.130;2023-02-03T02:39:27;99856.19;;;-1.19;100.00
47815;BME280;33579;50.058;18.130;2023-02-03T02:40:29;99856.06;;;-1.15;100.00
47815;BME280;33579;50.058;18.130;2023-02-03T02:41:50;99857.69;;;-1.12;100.00
47815;BME280;33579;50.058;18.130;2023-02-03T02:43:07;99852.56;;;-1.14;100.00
47815;BME280;33579;50.058;18.130;2023-02-03T02:44:42;99857.78;;;-1.15;100.00
47815;BME280;33579;50.058;18.130;2023-02-03T02:45:48;99848.31;;;-1.15;100.00
47815;BME280;33579;50.058;18.130;2023-02-03T02:46:53;99843.97;;;-1.14;100.00
47815;BME280;33579;50.058;18.130;2023-02-03T02:48:09;99843.97;;;-1.14;100.00
47815;BME280;33579;50.058;18.130;2023-02-03T02:49:24;99838.69;;;-1.09;100.00
47815;BME280;33579;50.058;18.130;2023-02-03T02:50:31;99841.31;;;-1.11;100.00
47815;BME280;33579;50.058;18.130;2023-02-03T02:51:35;99842.28;;;-1.15;100.00
47815;BME280;33579;50.058;18.130;2023-02-03T02:52:40;99834.53;;;-1.15;100.00
47815;BME280;33579;50.058;18.130;2023-02-03T02:54:05;99846.53;;;-1.13;100.00
47815;BME280;33579;50.058;18.130;2023-02-03T02:55:22;99843.94;;;-1.13;100.00
47815;BME280;33579;50.058;18.130;2023-02-03T02:56:29;99842.34;;;-1.17;100.00
47815;BME280;33579;50.058;18.130;2023-02-03T02:57:34;99851.72;;;-1.14;100.00
47815;BME280;33579;50.058;18.130;2023-02-03T02:58:40;99841.16;;;-1.06;100.00
47815;BME280;33579;50.058;18.130;2023-02-03T02:59:45;99849.78;;;-1.06;100.00
47815;BME280;33579;50.058;18.130;2023-02-03T03:00:47;99844.41;;;-1.00;100.00
47815;BME280;33579;50.058;18.130;2023-02-03T03:01:48;99852.16;;;-1.00;100.00
47815;BME280;33579;50.058;18.130;2023-02-03T03:02:50;99853.00;;;-0.97;100.00
47815;BME280;33579;50.058;18.130;2023-02-03T03:03:52;99852.00;;;-0.93;100.00
47815;BME280;33579;50.058;18.130;2023-02-03T03:04:53;99851.00;;;-0.89;100.00
47815;BME280;33579;50.058;18.130;2023-02-03T03:06:01;99853.47;;;-0.85;100.00
47815;BME280;33579;50.058;18.130;2023-02-03T03:07:15;99861.97;;;-0.81;100.00
47815;BME280;33579;50.058;18.130;2023-02-03T03:08:29;99856.13;;;-0.86;100.00
47815;BME280;33579;50.058;18.130;2023-02-03T03:09:38;99859.53;;;-0.86;100.00
47815;BME280;33579;50.058;18.130;2023-02-03T03:10:41;99854.56;;;-0.92;100.00
47815;BME280;33579;50.058;18.130;2023-02-03T03:11:49;99850.22;;;-0.91;100.00
47815;BME280;33579;50.058;18.130;2023-02-03T03:12:55;99844.91;;;-0.87;100.00
47815;BME280;33579;50.058;18.130;2023-02-03T03:13:59;99853.47;;;-0.85;100.00
47815;BME280;33579;50.058;18.130;2023-02-03T03:15:10;99850.88;;;-0.85;100.00
47815;BME280;33579;50.058;18.130;2023-02-03T03:16:13;99860.16;;;-0.77;100.00
47815;BME280;33579;50.058;18.130;2023-02-03T03:17:21;99857.44;;;-0.73;100.00
47815;BME280;33579;50.058;18.130;2023-02-03T03:18:32;99862.44;;;-0.68;100.00
47815;BME280;33579;50.058;18.130;2023-02-03T03:19:39;99854.78;;;-0.71;100.00
47815;BME280;33579;50.058;18.130;2023-02-03T03:20:42;99855.69;;;-0.72;100.00
47815;BME280;33579;50.058;18.130;2023-02-03T03:21:59;99849.81;;;-0.77;100.00
47815;BME280;33579;50.058;18.130;2023-02-03T03:23:13;99846.25;;;-0.73;100.00
47815;BME280;33579;50.058;18.130;2023-02-03T03:24:49;99849.75;;;-0.76;100.00
47815;BME280;33579;50.058;18.130;2023-02-03T03:25:59;99852.31;;;-0.74;100.00
47815;BME280;33579;50.058;18.130;2023-02-03T03:27:10;99849.63;;;-0.71;100.00
47815;BME280;33579;50.058;18.130;2023-02-03T03:28:26;99856.47;;;-0.70;100.00
47815;BME280;33579;50.058;18.130;2023-02-03T03:29:42;99856.47;;;-0.70;100.00
47815;BME280;33579;50.058;18.130;2023-02-03T03:30:47;99845.97;;;-0.64;100.00
47815;BME280;33579;50.058;18.130;2023-02-03T03:31:49;99832.91;;;-0.59;100.00
47815;BME280;33579;50.058;18.130;2023-02-03T03:32:50;99843.91;;;-0.52;100.00
47815;BME280;33579;50.058;18.130;2023-02-03T03:33:52;99833.38;;;-0.46;100.00
47815;BME280;33579;50.058;18.130;2023-02-03T03:34:54;99825.69;;;-0.48;100.00
47815;BME280;33579;50.058;18.130;2023-02-03T03:36:01;99828.59;;;-0.59;100.00
47815;BME280;33579;50.058;18.130;2023-02-03T03:37:19;99818.91;;;-0.52;100.00
47815;BME280;33579;50.058;18.130;2023-02-03T03:38:36;99810.03;;;-0.43;100.00
47815;BME280;33579;50.058;18.130;2023-02-03T03:39:53;99810.09;;;-0.46;100.00
47815;BME280;33579;50.058;18.130;2023-02-03T03:42:50;99807.84;;;-0.55;100.00
47815;BME280;33579;50.058;18.130;2023-02-03T03:43:55;99799.25;;;-0.58;100.00
47815;BME280;33579;50.058;18.130;2023-02-03T03:45:00;99794.03;;;-0.56;100.00
47815;BME280;33579;50.058;18.130;2023-02-03T03:46:08;99796.78;;;-0.61;100.00
47815;BME280;33579;50.058;18.130;2023-02-03T03:47:22;99799.31;;;-0.59;100.00
47815;BME280;33579;50.058;18.130;2023-02-03T03:48:33;99799.91;;;-0.51;100.00
47815;BME280;33579;50.058;18.130;2023-02-03T03:49:38;99797.53;;;-0.57;100.00
47815;BME280;33579;50.058;18.130;2023-02-03T03:51:12;99799.34;;;-0.61;100.00
47815;BME280;33579;50.058;18.130;2023-02-03T03:52:16;99794.00;;;-0.54;100.00
47815;BME280;33579;50.058;18.130;2023-02-03T03:53:20;99797.31;;;-0.51;100.00
47815;BME280;33579;50.058;18.130;2023-02-03T03:54:24;99787.09;;;-0.54;100.00
47815;BME280;33579;50.058;18.130;2023-02-03T03:55:28;99789.66;;;-0.54;100.00
47815;BME280;33579;50.058;18.130;2023-02-03T03:56:36;99777.59;;;-0.53;100.00
47815;BME280;33579;50.058;18.130;2023-02-03T03:57:44;99775.72;;;-0.48;100.00
47815;BME280;33579;50.058;18.130;2023-02-03T03:58:50;99777.47;;;-0.49;100.00
47815;BME280;33579;50.058;18.130;2023-02-03T03:59:53;99766.94;;;-0.44;100.00
47815;BME280;33579;50.058;18.130;2023-02-03T04:01:01;99770.28;;;-0.40;100.00
47815;BME280;33579;50.058;18.130;2023-02-03T04:02:04;99770.28;;;-0.40;100.00
47815;BME280;33579;50.058;18.130;2023-02-03T04:03:14;99766.00;;;-0.41;100.00
47815;BME280;33579;50.058;18.130;2023-02-03T04:04:17;99770.28;;;-0.40;100.00
47815;BME280;33579;50.058;18.130;2023-02-03T04:05:21;99759.16;;;-0.43;100.00
47815;BME280;33579;50.058;18.130;2023-02-03T04:06:23;99761.84;;;-0.46;100.00
47815;BME280;33579;50.058;18.130;2023-02-03T04:07:37;99748.84;;;-0.44;100.00
47815;BME280;33579;50.058;18.130;2023-02-03T04:08:38;99741.06;;;-0.43;100.00
47815;BME280;33579;50.058;18.130;2023-02-03T04:09:40;99741.16;;;-0.46;100.00
47815;BME280;33579;50.058;18.130;2023-02-03T04:10:43;99744.66;;;-0.47;100.00
47815;BME280;33579;50.058;18.130;2023-02-03T04:11:44;99743.91;;;-0.50;100.00
47815;BME280;33579;50.058;18.130;2023-02-03T04:12:46;99745.59;;;-0.49;100.00
47815;BME280;33579;50.058;18.130;2023-02-03T04:13:47;99741.50;;;-0.57;100.00
47815;BME280;33579;50.058;18.130;2023-02-03T04:14:49;99747.66;;;-0.61;100.00
47815;BME280;33579;50.058;18.130;2023-02-03T04:15:50;99745.78;;;-0.55;100.00
47815;BME280;33579;50.058;18.130;2023-02-03T04:16:52;99743.94;;;-0.52;100.00
47815;BME280;33579;50.058;18.130;2023-02-03T04:17:54;99737.78;;;-0.48;100.00
47815;BME280;33579;50.058;18.130;2023-02-03T04:18:55;99739.22;;;-0.39;100.00
47815;BME280;33579;50.058;18.130;2023-02-03T04:19:57;99743.38;;;-0.35;100.00
47815;BME280;33579;50.058;18.130;2023-02-03T04:20:58;99741.75;;;-0.37;100.00
47815;BME280;33579;50.058;18.130;2023-02-03T04:22:00;99745.03;;;-0.32;100.00
47815;BME280;33579;50.058;18.130;2023-02-03T04:23:01;99742.41;;;-0.31;100.00
47815;BME280;33579;50.058;18.130;2023-02-03T04:24:03;99745.78;;;-0.29;100.00
47815;BME280;33579;50.058;18.130;2023-02-03T04:25:05;99749.09;;;-0.25;100.00
47815;BME280;33579;50.058;18.130;2023-02-03T04:26:06;99754.38;;;-0.28;100.00
47815;BME280;33579;50.058;18.130;2023-02-03T04:27:08;99746.72;;;-0.31;100.00
47815;BME280;33579;50.058;18.130;2023-02-03T04:28:10;99741.66;;;-0.34;100.00
47815;BME280;33579;50.058;18.130;2023-02-03T04:29:11;99739.00;;;-0.33;100.00
47815;BME280;33579;50.058;18.130;2023-02-03T04:30:13;99736.50;;;-0.34;100.00
47815;BME280;33579;50.058;18.130;2023-02-03T04:31:16;99731.25;;;-0.33;100.00
47815;BME280;33579;50.058;18.130;2023-02-03T04:32:18;99729.47;;;-0.31;100.00
47815;BME280;33579;50.058;18.130;2023-02-03T04:33:19;99734.44;;;-0.24;100.00
47815;BME280;33579;50.058;18.130;2023-02-03T04:34:21;99732.94;;;-0.32;100.00
47815;BME280;33579;50.058;18.130;2023-02-03T04:35:22;99731.06;;;-0.26;100.00
47815;BME280;33579;50.058;18.130;2023-02-03T04:36:24;99729.38;;;-0.27;100.00
47815;BME280;33579;50.058;18.130;2023-02-03T04:37:26;99729.56;;;-0.34;100.00
47815;BME280;33579;50.058;18.130;2023-02-03T04:38:27;99727.75;;;-0.32;100.00
47815;BME280;33579;50.058;18.130;2023-02-03T04:39:29;99731.25;;;-0.33;100.00
47815;BME280;33579;50.058;18.130;2023-02-03T04:40:30;99728.81;;;-0.37;100.00
47815;BME280;33579;50.058;18.130;2023-02-03T04:41:35;99730.53;;;-0.36;100.00
47815;BME280;33579;50.058;18.130;2023-02-03T04:42:37;99727.19;;;-0.40;100.00
47815;BME280;33579;50.058;18.130;2023-02-03T04:43:39;99727.34;;;-0.45;100.00
47815;BME280;33579;50.058;18.130;2023-02-03T04:44:41;99725.66;;;-0.46;100.00
47815;BME280;33579;50.058;18.130;2023-02-03T04:45:42;99726.59;;;-0.48;100.00
47815;BME280;33579;50.058;18.130;2023-02-03T04:46:44;99726.75;;;-0.53;100.00
47815;BME280;33579;50.058;18.130;2023-02-03T04:47:50;99727.59;;;-0.52;100.00
47815;BME280;33579;50.058;18.130;2023-02-03T04:48:54;99721.47;;;-0.50;100.00
47815;BME280;33579;50.058;18.130;2023-02-03T04:49:56;99719.63;;;-0.46;100.00
47815;BME280;33579;50.058;18.130;2023-02-03T04:51:05;99725.59;;;-0.44;100.00
47815;BME280;33579;50.058;18.130;2023-02-03T04:52:07;99720.25;;;-0.39;100.00
47815;BME280;33579;50.058;18.130;2023-02-03T04:53:09;99720.22;;;-0.38;100.00
47815;BME280;33579;50.058;18.130;2023-02-03T04:54:10;99719.28;;;-0.35;100.00
47815;BME280;33579;50.058;18.130;2023-02-03T04:55:12;99721.06;;;-0.37;100.00
47815;BME280;33579;50.058;18.130;2023-02-03T04:56:13;99720.97;;;-0.34;100.00
47815;BME280;33579;50.058;18.130;2023-02-03T04:57:15;99717.50;;;-0.33;100.00
47815;BME280;33579;50.058;18.130;2023-02-03T04:58:16;99713.31;;;-0.37;100.00
47815;BME280;33579;50.058;18.130;2023-02-03T04:59:18;99703.94;;;-0.40;100.00
47815;BME280;33579;50.058;18.130;2023-02-03T05:00:20;99703.78;;;-0.35;100.00
47815;BME280;33579;50.058;18.130;2023-02-03T05:01:21;99699.28;;;-0.30;100.00
47815;BME280;33579;50.058;18.130;2023-02-03T05:02:23;99692.38;;;-0.30;100.00
47815;BME280;33579;50.058;18.130;2023-02-03T05:03:24;99694.00;;;-0.27;100.00
47815;BME280;33579;50.058;18.130;2023-02-03T05:04:26;99690.47;;;-0.24;100.00
47815;BME280;33579;50.058;18.130;2023-02-03T05:05:28;99688.00;;;-0.27;100.00
47815;BME280;33579;50.058;18.130;2023-02-03T05:06:30;99684.56;;;-0.28;100.00
47815;BME280;33579;50.058;18.130;2023-02-03T05:07:31;99683.81;;;-0.32;100.00
47815;BME280;33579;50.058;18.130;2023-02-03T05:08:33;99677.03;;;-0.34;100.00
47815;BME280;33579;50.058;18.130;2023-02-03T05:09:34;99675.41;;;-0.38;100.00
47815;BME280;33579;50.058;18.130;2023-02-03T05:10:36;99672.84;;;-0.38;100.00
47815;BME280;33579;50.058;18.130;2023-02-03T05:11:37;99667.66;;;-0.38;100.00
47815;BME280;33579;50.058;18.130;2023-02-03T05:12:39;99666.75;;;-0.37;100.00
47815;BME280;33579;50.058;18.130;2023-02-03T05:13:40;99668.41;;;-0.35;100.00
47815;BME280;33579;50.058;18.130;2023-02-03T05:14:42;99670.00;;;-0.31;100.00
47815;BME280;33579;50.058;18.130;2023-02-03T05:15:43;99669.00;;;-0.26;100.00
47815;BME280;33579;50.058;18.130;2023-02-03T05:16:45;99660.34;;;-0.25;100.00
47815;BME280;33579;50.058;18.130;2023-02-03T05:17:47;99661.28;;;-0.28;100.00
47815;BME280;33579;50.058;18.130;2023-02-03T05:18:49;99654.38;;;-0.27;100.00
47815;BME280;33579;50.058;18.130;2023-02-03T05:19:50;99649.25;;;-0.29;100.00
47815;BME280;33579;50.058;18.130;2023-02-03T05:20:52;99651.78;;;-0.27;100.00
47815;BME280;33579;50.058;18.130;2023-02-03T05:21:53;99647.44;;;-0.27;100.00
47815;BME280;33579;50.058;18.130;2023-02-03T05:22:55;99649.09;;;-0.24;100.00
47815;BME280;33579;50.058;18.130;2023-02-03T05:23:56;99647.19;;;-0.19;100.00
47815;BME280;33579;50.058;18.130;2023-02-03T05:24:58;99646.34;;;-0.20;100.00
47815;BME280;33579;50.058;18.130;2023-02-03T05:25:59;99643.53;;;-0.13;100.00
47815;BME280;33579;50.058;18.130;2023-02-03T05:27:01;99641.81;;;-0.13;100.00
47815;BME280;33579;50.058;18.130;2023-02-03T05:28:02;99639.41;;;-0.19;100.00
47815;BME280;33579;50.058;18.130;2023-02-03T05:29:04;99636.13;;;-0.23;100.00
47815;BME280;33579;50.058;18.130;2023-02-03T05:30:07;99633.56;;;-0.24;100.00
47815;BME280;33579;50.058;18.130;2023-02-03T05:31:09;99626.69;;;-0.24;100.00
47815;BME280;33579;50.058;18.130;2023-02-03T05:32:11;99633.00;;;-0.33;100.00
47815;BME280;33579;50.058;18.130;2023-02-03T05:33:12;99619.97;;;-0.30;100.00
47815;BME280;33579;50.058;18.130;2023-02-03T05:34:14;99626.06;;;-0.31;100.00
47815;BME280;33579;50.058;18.130;2023-02-03T05:35:16;99620.94;;;-0.32;100.00
47815;BME280;33579;50.058;18.130;2023-02-03T05:36:17;99620.94;;;-0.32;100.00
47815;BME280;33579;50.058;18.130;2023-02-03T05:37:19;99619.16;;;-0.32;100.00
47815;BME280;33579;50.058;18.130;2023-02-03T05:38:20;99620.03;;;-0.31;100.00
47815;BME280;33579;50.058;18.130;2023-02-03T05:39:22;99610.31;;;-0.24;100.00
47815;BME280;33579;50.058;18.130;2023-02-03T05:40:24;99617.31;;;-0.28;100.00
47815;BME280;33579;50.058;18.130;2023-02-03T05:41:26;99611.47;;;-0.33;100.00
47815;BME280;33579;50.058;18.130;2023-02-03T05:42:27;99611.41;;;-0.32;100.00
47815;BME280;33579;50.058;18.130;2023-02-03T05:43:29;99601.81;;;-0.28;100.00
47815;BME280;33579;50.058;18.130;2023-02-03T05:44:30;99605.25;;;-0.27;100.00
47815;BME280;33579;50.058;18.130;2023-02-03T05:45:32;99606.16;;;-0.29;100.00
47815;BME280;33579;50.058;18.130;2023-02-03T05:46:33;99609.63;;;-0.30;100.00
47815;BME280;33579;50.058;18.130;2023-02-03T05:47:35;99601.19;;;-0.35;100.00
47815;BME280;33579;50.058;18.130;2023-02-03T05:48:36;99603.84;;;-0.36;100.00
47815;BME280;33579;50.058;18.130;2023-02-03T05:49:38;99607.22;;;-0.34;100.00
47815;BME280;33579;50.058;18.130;2023-02-03T05:50:39;99605.53;;;-0.35;100.00
47815;BME280;33579;50.058;18.130;2023-02-03T05:51:41;99604.78;;;-0.39;100.00